Skip Navigation LinksHome page > Weather > Current weather Skip Navigation Links

Current Weather

Ndjamena, Chad

For information only: do not use for flight planning or navigation.
Latest weather
Observation time Wednesday, January 18, 2017 2:00 PM WAT
Local time Wednesday, January 18, 2017 2:58 PM WAT
Flight conditions Marginal Visual Meteorological Conditions
Winds
Wind direction East-Northeast (60°)
Winds variable from 20° to 130°
Wind speed 8 mph
Visibility 5 mi.
Sky condition
Ceiling unlimited
Temperature 97°F
Dewpoint 19°F
Altimeter 29.83 in.Hg
Derived measurements
Relative humidity 6%
Heat index 97°F
Density altitude 2849 ft.
Remarks
No significant changes expected in the next two hours.
METAR FTTJ 181300Z 06007KT 020V130 8000 NSC 36/M07 Q1010 NOSIG

Settings

Location code

InnerDrive.Weather 4.0.6144.1 Release CLR 4.0.30319.34209
Copyright ©2015 Inner Drive Technology. All rights reserved. Portions Copyright ©1986-2015 David Braverman.

Find weather

Site navigation


Skip Navigation Links

Place info

Page info

PayPal - The safer, easier way to pay online!

Return home.

Copyright ©2017 Inner Drive Technology. Purveyors of fine, hand-crafted computer software. Page printed 2017-01-18T13:58:24 UTC.